Terminal Aerodrome Forecast
Issued by NWS Knoxville/Tri Cities, TN

Home | Current Version | Previous Version | Text Only | Print | Product List | Glossary On
Versions: 1 2 3 4 5 6 7 8 9 10 11 12 13 14 15 16 17 18 19 20 21 22 23 24 25 26 27 28 29 30 31 32 33 34 35
000
FTUS44 KMRX 271735
TAFTYS
TAF
KTYS 271735Z 2718/2818 32005KT P6SM SCT015 OVC025
      TEMPO 2718/2720 P6SM BKN015
     FM272000 35006KT P6SM OVC020
     FM280200 34006KT P6SM OVC030
     FM280600 VRB03KT P6SM SCT035
     FM281200 VRB03KT P6SM SKC=

USA.gov is the U.S. government's official web portal to all federal, state and local government web resources and services.